createdAt,value
2023-04-04T00:01:07.719Z,87.91
2023-04-04T00:03:36.228Z,87.12
2023-04-04T00:06:04.686Z,86.72
2023-04-04T00:08:33.136Z,88.83
2023-04-04T00:11:02.250Z,88.33
2023-04-04T00:13:31.092Z,86.50
2023-04-04T00:15:59.742Z,85.53
2023-04-04T00:18:28.410Z,83.98
2023-04-04T00:20:56.884Z,83.99
2023-04-04T00:23:25.354Z,84.42
2023-04-04T00:25:54.486Z,85.02
2023-04-04T00:28:23.386Z,85.41
2023-04-04T00:30:51.864Z,86.01
2023-04-04T00:33:20.419Z,86.43
2023-04-04T00:35:50.195Z,85.85
2023-04-04T00:38:18.604Z,84.59
2023-04-04T00:40:50.599Z,84.22
2023-04-04T00:43:20.114Z,83.83
2023-04-04T00:45:48.873Z,83.98
2023-04-04T00:48:17.553Z,84.11
2023-04-04T00:50:45.947Z,83.34
2023-04-04T00:53:14.373Z,81.86
2023-04-04T00:55:44.414Z,81.65
2023-04-04T00:58:13.435Z,82.99
2023-04-04T01:00:42.302Z,84.94
2023-04-04T01:03:13.618Z,83.50
2023-04-04T01:05:42.772Z,83.64
2023-04-04T01:08:11.253Z,84.03
2023-04-04T01:10:41.701Z,84.42
2023-04-04T01:13:10.748Z,84.79
2023-04-04T01:15:39.254Z,82.69
2023-04-04T01:18:08.726Z,82.18
2023-04-04T01:20:43.667Z,82.56
2023-04-04T01:23:13.676Z,82.52
2023-04-04T01:25:42.459Z,80.84
2023-04-04T01:28:11.030Z,80.95
2023-04-04T01:30:42.189Z,80.00
2023-04-04T01:33:33.186Z,81.52
2023-04-04T01:36:07.620Z,79.74
2023-04-04T01:38:48.228Z,79.43
2023-04-04T01:41:18.871Z,81.16
2023-04-04T01:43:47.705Z,81.41
2023-04-04T01:46:19.575Z,81.10
2023-04-04T01:48:48.098Z,81.27
2023-04-04T01:51:17.236Z,79.47
2023-04-04T01:53:45.875Z,77.98
2023-04-04T01:56:14.287Z,79.05
2023-04-04T01:58:42.677Z,78.51
2023-04-04T02:01:11.101Z,77.85
2023-04-04T02:03:39.522Z,77.04
2023-04-04T02:06:08.868Z,77.28
2023-04-04T02:08:37.391Z,76.65
2023-04-04T02:11:05.874Z,76.59
2023-04-04T02:13:34.310Z,74.02
2023-04-04T02:16:02.780Z,72.81
2023-04-04T02:18:31.201Z,74.44
2023-04-04T02:20:59.599Z,74.50
2023-04-04T02:23:28.031Z,74.05
2023-04-04T02:25:56.555Z,72.39
2023-04-04T02:28:24.991Z,72.97
2023-04-04T02:30:53.409Z,73.19
2023-04-04T02:33:21.863Z,72.54
2023-04-04T02:35:50.356Z,74.26
2023-04-04T02:38:18.765Z,73.23
2023-04-04T02:40:47.437Z,71.89
2023-04-04T02:43:15.847Z,70.61
2023-04-04T02:45:44.291Z,71.41
2023-04-04T02:48:12.729Z,68.96
2023-04-04T02:50:41.276Z,67.92
2023-04-04T02:53:09.759Z,70.42
2023-04-04T02:55:38.246Z,64.00
2023-04-04T02:58:06.685Z,66.65
2023-04-04T03:00:35.050Z,65.76
2023-04-04T03:03:03.559Z,66.98
2023-04-04T03:05:35.507Z,68.35
2023-04-04T03:08:03.936Z,69.68
2023-04-04T03:10:32.596Z,68.84
2023-04-04T03:13:01.460Z,69.61
2023-04-04T03:15:30.082Z,66.77
2023-04-04T03:17:59.838Z,60.67
2023-04-04T03:20:29.056Z,63.29
2023-04-04T03:22:58.683Z,63.02
2023-04-04T03:25:27.221Z,61.64
2023-04-04T03:27:55.706Z,60.09
2023-04-04T03:30:24.336Z,61.12
2023-04-04T03:32:52.757Z,58.80
2023-04-04T03:35:21.220Z,61.20
2023-04-04T03:37:49.634Z,57.22
2023-04-04T03:40:18.128Z,57.89
2023-04-04T03:42:46.669Z,62.19
2023-04-04T03:45:15.111Z,62.39
2023-04-04T03:47:43.533Z,58.23
2023-04-04T03:50:12.418Z,62.06
2023-04-04T03:52:43.809Z,62.89
2023-04-04T03:55:12.346Z,62.12
2023-04-04T03:57:40.784Z,60.74
2023-04-04T04:00:09.714Z,53.37
2023-04-04T04:02:38.217Z,57.73
2023-04-04T04:05:07.073Z,55.53
2023-04-04T04:07:35.654Z,55.72
2023-04-04T04:10:04.533Z,54.85
2023-04-04T04:12:32.923Z,57.05
2023-04-04T04:15:01.882Z,57.36
2023-04-04T04:17:30.298Z,57.92
2023-04-04T04:19:58.706Z,60.26
2023-04-04T04:22:27.128Z,60.77
2023-04-04T04:24:55.555Z,57.35
2023-04-04T04:27:24.715Z,57.67
2023-04-04T04:29:53.151Z,51.61
2023-04-04T04:32:21.829Z,51.60
2023-04-04T04:34:50.205Z,55.59
2023-04-04T04:37:18.699Z,54.82
2023-04-04T04:39:47.126Z,52.47
2023-04-04T04:42:15.645Z,48.59
2023-04-04T04:44:44.001Z,52.33
2023-04-04T04:47:12.402Z,52.63
2023-04-04T04:49:40.946Z,50.98
2023-04-04T04:52:09.440Z,50.42
2023-04-04T04:54:37.913Z,54.81
2023-04-04T04:57:06.350Z,54.12
2023-04-04T04:59:34.725Z,58.11
2023-04-04T05:02:03.167Z,55.90
2023-04-04T05:04:31.712Z,55.31
2023-04-04T05:07:00.176Z,58.48
2023-04-04T05:09:28.699Z,56.65
2023-04-04T05:11:57.397Z,54.82
2023-04-04T05:14:25.806Z,54.70
2023-04-04T05:16:54.548Z,57.34
2023-04-04T05:19:23.613Z,56.27
2023-04-04T05:21:52.115Z,54.79
2023-04-04T05:24:20.713Z,50.37
2023-04-04T05:26:49.114Z,50.14
2023-04-04T05:29:17.503Z,51.72
2023-04-04T05:31:45.926Z,53.27
2023-04-04T05:34:14.314Z,53.08
2023-04-04T05:36:42.752Z,54.73
2023-04-04T05:39:11.137Z,53.50
2023-04-04T05:41:39.654Z,50.70
2023-04-04T05:44:08.126Z,56.10
2023-04-04T05:46:36.835Z,51.83
2023-04-04T05:49:05.329Z,54.06
2023-04-04T05:51:33.746Z,51.14
2023-04-04T05:54:02.137Z,50.92
2023-04-04T05:56:30.688Z,53.56
2023-04-04T05:59:00.260Z,54.58
2023-04-04T06:01:30.270Z,55.45
2023-04-04T06:03:58.707Z,55.31
2023-04-04T06:06:27.343Z,55.64
2023-04-04T06:08:55.799Z,56.47
2023-04-04T06:11:24.336Z,54.01
2023-04-04T06:13:54.072Z,53.92
2023-04-04T06:16:23.602Z,51.53
2023-04-04T06:18:52.129Z,49.09
2023-04-04T06:21:20.518Z,52.62
2023-04-04T06:23:48.880Z,53.56
2023-04-04T06:26:17.634Z,54.14
2023-04-04T06:28:52.407Z,54.85
2023-04-04T06:31:20.898Z,52.26
2023-04-04T06:33:49.343Z,52.04
2023-04-04T06:36:17.892Z,52.13
2023-04-04T06:38:46.565Z,51.43
2023-04-04T06:41:14.933Z,51.25
2023-04-04T06:43:43.407Z,48.25
2023-04-04T06:46:11.827Z,49.81
2023-04-04T06:48:40.183Z,48.48
2023-04-04T06:51:09.440Z,49.11
2023-04-04T06:53:38.558Z,50.26
2023-04-04T06:56:07.448Z,49.62
2023-04-04T06:58:35.892Z,48.62
2023-04-04T07:01:04.311Z,47.71
2023-04-04T07:03:33.102Z,47.81
2023-04-04T07:06:05.340Z,49.24
2023-04-04T07:08:36.873Z,50.40
2023-04-04T07:11:07.381Z,47.51
2023-04-04T07:13:36.418Z,44.84
2023-04-04T07:16:04.887Z,51.05
2023-04-04T07:18:33.417Z,47.50
2023-04-04T07:21:01.900Z,49.91
2023-04-04T07:23:30.275Z,50.59
2023-04-04T07:25:58.814Z,47.88
2023-04-04T07:28:27.305Z,44.87
2023-04-04T07:30:55.751Z,47.50
2023-04-04T07:33:24.224Z,46.55
2023-04-04T07:35:54.118Z,48.74
2023-04-04T07:38:22.885Z,41.25
2023-04-04T07:40:51.588Z,46.90
2023-04-04T07:43:19.981Z,48.70
2023-04-04T07:45:48.518Z,48.54
2023-04-04T07:48:17.002Z,48.02
2023-04-04T07:50:45.452Z,48.17
2023-04-04T07:53:13.813Z,48.09
2023-04-04T07:55:42.243Z,49.03
2023-04-04T07:58:10.617Z,48.29
2023-04-04T08:00:39.254Z,45.87
2023-04-04T08:03:08.089Z,46.67
2023-04-04T08:05:36.613Z,47.14
2023-04-04T08:08:05.044Z,45.31
2023-04-04T08:10:33.484Z,45.67
2023-04-04T08:13:01.934Z,46.47
2023-04-04T08:15:31.806Z,44.35
2023-04-04T08:18:00.279Z,46.29
2023-04-04T08:20:29.468Z,46.07
2023-04-04T08:22:58.384Z,47.77
2023-04-04T08:25:26.770Z,46.66
2023-04-04T08:27:55.156Z,47.19
2023-04-04T08:30:23.710Z,47.98
2023-04-04T08:32:52.112Z,46.20
2023-04-04T08:35:21.100Z,45.21
2023-04-04T08:37:49.680Z,45.42
2023-04-04T08:40:18.486Z,44.26
2023-04-04T08:42:48.073Z,45.19
2023-04-04T08:48:05.190Z,46.49
2023-04-04T08:50:35.032Z,45.18
2023-04-04T08:53:05.735Z,46.79
2023-04-04T08:55:34.134Z,45.80
2023-04-04T08:58:02.794Z,44.30
2023-04-04T09:00:31.575Z,46.39
2023-04-04T09:03:25.252Z,45.32
2023-04-04T09:05:56.363Z,44.70
2023-04-04T09:08:25.759Z,44.19
2023-04-04T09:10:54.604Z,44.65
2023-04-04T09:13:23.772Z,46.38
2023-04-04T09:15:58.384Z,45.57
2023-04-04T09:18:26.766Z,43.69
2023-04-04T09:20:55.471Z,44.41
2023-04-04T09:23:24.729Z,44.18
2023-04-04T09:26:03.970Z,42.83
2023-04-04T09:28:34.381Z,43.94
2023-04-04T09:31:06.504Z,44.03
2023-04-04T09:33:36.056Z,44.05
2023-04-04T09:36:11.300Z,44.66
2023-04-04T09:38:46.364Z,43.92
2023-04-04T09:41:19.777Z,42.13
2023-04-04T09:43:49.418Z,44.28
2023-04-04T09:46:22.149Z,41.38
2023-04-04T09:48:55.856Z,42.53
2023-04-04T09:51:24.264Z,44.44
2023-04-04T09:53:52.886Z,43.50
2023-04-04T09:56:22.001Z,42.14
2023-04-04T10:01:22.590Z,42.10
2023-04-04T10:03:58.084Z,40.63
2023-04-04T10:06:27.821Z,42.48
2023-04-04T10:08:59.426Z,43.82
2023-04-04T10:11:35.717Z,43.63
2023-04-04T10:14:07.675Z,43.32
2023-04-04T10:16:40.141Z,44.29
2023-04-04T10:19:09.777Z,42.75
2023-04-04T10:21:38.306Z,42.31
2023-04-04T10:24:11.234Z,42.43
2023-04-04T10:26:39.824Z,43.61
2023-04-04T10:29:08.285Z,41.52
2023-04-04T10:31:42.239Z,44.09
2023-04-04T10:34:46.313Z,43.39
2023-04-04T10:37:18.632Z,44.12
2023-04-04T10:40:05.354Z,43.70
2023-04-04T10:42:47.419Z,42.23
2023-04-04T10:45:21.646Z,43.20
2023-04-04T10:47:51.908Z,42.66
2023-04-04T10:50:21.922Z,43.61
2023-04-04T10:52:51.861Z,42.08
2023-04-04T10:55:20.778Z,42.25
2023-04-04T10:57:53.515Z,41.97
2023-04-04T11:00:24.550Z,42.15
2023-04-04T11:03:01.079Z,42.01
2023-04-04T11:05:38.521Z,43.35
2023-04-04T11:08:09.837Z,42.11
2023-04-04T11:10:46.204Z,42.70
2023-04-04T11:13:33.440Z,43.00
2023-04-04T11:16:08.471Z,43.05
2023-04-04T11:18:42.749Z,44.03
2023-04-04T11:21:20.826Z,43.92
2023-04-04T11:23:49.672Z,45.06
2023-04-04T11:26:38.139Z,43.90
2023-04-04T11:29:10.593Z,44.54
2023-04-04T11:31:46.180Z,44.15
2023-04-04T11:34:16.315Z,47.04
2023-04-04T11:36:45.927Z,45.51
2023-04-04T11:39:29.461Z,45.63
2023-04-04T11:42:09.287Z,44.02
2023-04-04T11:45:04.605Z,44.75
2023-04-04T11:47:33.303Z,45.91
2023-04-04T11:50:03.423Z,47.53
2023-04-04T11:52:39.321Z,47.81
2023-04-04T11:55:19.114Z,49.77
2023-04-04T11:57:52.443Z,48.95
2023-04-04T12:00:38.876Z,49.34
2023-04-04T12:03:11.978Z,51.05
2023-04-04T12:05:42.442Z,50.04
2023-04-04T12:08:13.437Z,51.49
2023-04-04T12:10:42.320Z,52.42
2023-04-04T12:13:11.644Z,52.96
2023-04-04T12:15:40.551Z,53.50
2023-04-04T12:18:10.156Z,52.24
2023-04-04T12:20:42.471Z,52.20
2023-04-04T12:23:11.135Z,53.88
2023-04-04T12:25:45.048Z,54.71
2023-04-04T12:28:14.023Z,55.59
2023-04-04T12:30:42.668Z,55.62
2023-04-04T12:33:11.173Z,56.50
2023-04-04T12:35:40.062Z,55.83
2023-04-04T12:38:11.674Z,58.27
2023-04-04T12:40:41.003Z,59.11
2023-04-04T12:43:10.659Z,58.25
2023-04-04T12:45:41.557Z,57.68
2023-04-04T12:48:15.847Z,57.04
2023-04-04T12:51:11.555Z,57.18
2023-04-04T12:53:59.373Z,58.86
2023-04-04T12:56:28.978Z,60.27
2023-04-04T12:59:05.680Z,60.82
2023-04-04T13:01:34.527Z,60.70
2023-04-04T13:04:05.662Z,59.75
2023-04-04T13:06:34.569Z,61.95
2023-04-04T13:09:03.205Z,61.44
2023-04-04T13:11:58.810Z,61.70
2023-04-04T13:14:28.831Z,62.13
2023-04-04T13:17:09.282Z,62.43
2023-04-04T13:19:37.896Z,61.65
2023-04-04T13:22:10.457Z,60.14
2023-04-04T13:24:39.883Z,61.48
2023-04-04T13:27:09.314Z,61.04
2023-04-04T13:29:37.750Z,61.01
2023-04-04T13:32:06.457Z,62.06
2023-04-04T13:34:36.953Z,60.83
2023-04-04T13:37:05.635Z,60.25
2023-04-04T13:39:34.139Z,59.85
2023-04-04T13:42:04.485Z,59.35
2023-04-04T13:44:32.974Z,59.11
2023-04-04T13:47:01.523Z,59.30
2023-04-04T13:49:30.005Z,59.53
2023-04-04T13:51:58.476Z,58.90
2023-04-04T13:54:27.575Z,59.61
2023-04-04T13:56:55.979Z,58.47
2023-04-04T13:59:24.408Z,58.35
2023-04-04T14:01:53.021Z,59.07
2023-04-04T14:04:24.052Z,58.41
2023-04-04T14:06:52.819Z,58.07
2023-04-04T14:09:21.297Z,56.73
2023-04-04T14:11:49.672Z,56.41
2023-04-04T14:14:18.367Z,56.68
2023-04-04T14:16:46.842Z,55.23
2023-04-04T14:19:16.502Z,54.49
2023-04-04T14:21:44.938Z,54.36
2023-04-04T14:24:13.380Z,54.68
2023-04-04T14:26:41.830Z,55.00
2023-04-04T14:29:10.263Z,54.21
2023-04-04T14:31:38.770Z,54.15
2023-04-04T14:34:08.329Z,52.75
2023-04-04T14:36:37.474Z,52.69
2023-04-04T14:39:06.115Z,52.39
2023-04-04T14:41:34.634Z,53.46
2023-04-04T14:44:03.253Z,53.84
2023-04-04T14:46:32.155Z,53.88
2023-04-04T14:49:00.754Z,53.20
2023-04-04T14:51:29.298Z,53.07
2023-04-04T14:53:58.142Z,52.83
2023-04-04T14:56:27.098Z,52.17
2023-04-04T14:58:55.794Z,52.20
2023-04-04T15:01:24.696Z,53.08
2023-04-04T15:03:54.962Z,52.45
2023-04-04T15:06:23.478Z,52.09
2023-04-04T15:08:52.061Z,53.29
2023-04-04T15:11:23.968Z,52.29
2023-04-04T15:13:52.304Z,53.20
2023-04-04T15:16:20.668Z,52.66
2023-04-04T15:18:49.046Z,54.00
2023-04-04T15:21:17.971Z,54.57
2023-04-04T15:23:46.992Z,54.52
2023-04-04T15:26:15.338Z,54.99
2023-04-04T15:28:43.673Z,54.05
2023-04-04T15:31:14.957Z,53.99
2023-04-04T15:33:44.292Z,55.18
2023-04-04T15:36:12.613Z,54.10
2023-04-04T15:38:41.817Z,55.09
2023-04-04T15:41:11.337Z,54.97
2023-04-04T15:43:39.772Z,54.87
2023-04-04T15:46:08.209Z,54.81
2023-04-04T15:48:36.776Z,55.09
2023-04-04T15:51:05.689Z,55.50
2023-04-04T15:53:34.501Z,54.99
2023-04-04T15:56:03.085Z,55.75
2023-04-04T15:58:31.522Z,54.33
2023-04-04T16:00:59.982Z,56.25
2023-04-04T16:03:28.574Z,56.40
2023-04-04T16:05:57.406Z,55.42
2023-04-04T16:08:25.751Z,54.68
2023-04-04T16:10:54.236Z,55.33
2023-04-04T16:13:23.607Z,55.43
2023-04-04T16:15:52.020Z,55.02
2023-04-04T16:18:20.362Z,54.94
2023-04-04T16:20:48.750Z,55.22
2023-04-04T16:23:19.401Z,55.75
2023-04-04T16:25:47.985Z,56.01
2023-04-04T16:28:16.441Z,56.14
2023-04-04T16:30:44.904Z,58.12
2023-04-04T16:33:13.270Z,57.71
2023-04-04T16:35:41.801Z,56.47
2023-04-04T16:38:10.207Z,56.99
2023-04-04T16:40:38.814Z,55.59
2023-04-04T16:43:07.478Z,58.78
2023-04-04T16:45:35.923Z,58.77
2023-04-04T16:48:04.324Z,58.28
2023-04-04T16:50:32.706Z,58.34
2023-04-04T16:53:01.904Z,59.14
2023-04-04T16:55:30.438Z,59.82
2023-04-04T16:57:59.561Z,59.69
2023-04-04T17:00:27.908Z,59.45
2023-04-04T17:02:56.803Z,60.54
2023-04-04T17:05:25.266Z,59.43
2023-04-04T17:07:53.608Z,60.42
2023-04-04T17:10:22.330Z,61.03
2023-04-04T17:12:50.742Z,60.78
2023-04-04T17:15:19.602Z,62.70
2023-04-04T17:17:47.984Z,63.13
2023-04-04T17:20:20.047Z,62.64
2023-04-04T17:22:50.591Z,65.67
2023-04-04T17:25:21.526Z,64.07
2023-04-04T17:27:49.913Z,63.19
2023-04-04T17:30:18.415Z,65.02
2023-04-04T17:32:47.898Z,64.72
2023-04-04T17:35:16.815Z,64.96
2023-04-04T17:37:45.263Z,64.85
2023-04-04T17:40:14.099Z,64.54
2023-04-04T17:42:42.833Z,64.15
2023-04-04T17:45:11.601Z,64.04
2023-04-04T17:47:40.400Z,63.52
2023-04-04T17:50:09.185Z,61.90
2023-04-04T17:52:37.817Z,61.21
2023-04-04T17:55:06.555Z,61.56
2023-04-04T17:57:35.154Z,62.09
2023-04-04T18:00:03.536Z,62.39
2023-04-04T18:02:32.018Z,63.96
2023-04-04T18:05:00.652Z,64.54
2023-04-04T18:07:29.036Z,65.22
2023-04-04T18:09:57.533Z,66.45
2023-04-04T18:12:28.133Z,65.02
2023-04-04T18:14:56.564Z,66.16
2023-04-04T18:17:25.690Z,66.79
2023-04-04T18:19:55.649Z,66.51
2023-04-04T18:22:24.187Z,69.14
2023-04-04T18:24:52.545Z,71.19
2023-04-04T18:27:20.888Z,72.15
2023-04-04T18:29:49.346Z,70.57
2023-04-04T18:32:19.048Z,70.84
2023-04-04T18:34:47.542Z,69.80
2023-04-04T18:37:16.145Z,69.90
2023-04-04T18:39:46.440Z,71.21
2023-04-04T18:42:15.041Z,70.98
2023-04-04T18:44:43.530Z,70.12
2023-04-04T18:47:12.706Z,68.29
2023-04-04T18:49:41.121Z,68.94
2023-04-04T18:52:09.480Z,70.38
2023-04-04T18:54:38.166Z,70.62
2023-04-04T18:57:06.614Z,70.77
2023-04-04T18:59:35.768Z,72.21
2023-04-04T19:02:04.175Z,68.90
2023-04-04T19:04:36.056Z,70.18
2023-04-04T19:07:07.839Z,69.73
2023-04-04T19:09:39.092Z,67.92
2023-04-04T19:12:07.560Z,69.35
2023-04-04T19:14:35.909Z,68.33
2023-04-04T19:17:04.388Z,69.30
2023-04-04T19:19:32.766Z,70.79
2023-04-04T19:22:01.448Z,75.23
2023-04-04T19:24:30.408Z,77.09
2023-04-04T19:26:58.766Z,77.49
2023-04-04T19:29:27.146Z,76.39
2023-04-04T19:31:56.378Z,75.93
2023-04-04T19:34:24.681Z,74.71
2023-04-04T19:36:53.105Z,73.67
2023-04-04T19:39:24.311Z,74.04
2023-04-04T19:41:52.747Z,75.17
2023-04-04T19:44:22.189Z,75.61
2023-04-04T19:46:51.251Z,74.98
2023-04-04T19:49:20.247Z,74.04
2023-04-04T19:51:55.364Z,70.45
2023-04-04T19:54:32.994Z,69.80
2023-04-04T19:57:08.577Z,70.66
2023-04-04T19:59:58.790Z,72.34
2023-04-04T20:02:37.130Z,70.64
2023-04-04T20:05:28.147Z,71.61
2023-04-04T20:07:56.975Z,75.67
2023-04-04T20:10:40.384Z,77.30
2023-04-04T20:13:09.633Z,77.11
2023-04-04T20:15:48.282Z,74.35
2023-04-04T20:18:29.837Z,72.68
2023-04-04T20:20:59.561Z,72.13
2023-04-04T20:23:28.695Z,70.44
2023-04-04T20:26:10.886Z,72.82
2023-04-04T20:28:39.342Z,71.70
2023-04-04T20:31:11.660Z,70.80
2023-04-04T20:33:42.275Z,69.13
2023-04-04T20:36:21.292Z,69.29
2023-04-04T20:38:50.013Z,69.88
2023-04-04T20:41:25.409Z,72.15
2023-04-04T20:43:59.479Z,73.73
2023-04-04T20:46:29.063Z,74.48
2023-04-04T20:48:57.667Z,73.45
2023-04-04T20:51:32.374Z,73.28
2023-04-04T20:54:05.178Z,74.85
2023-04-04T20:56:47.546Z,75.12
2023-04-04T20:59:37.861Z,75.88
2023-04-04T21:02:10.830Z,77.00
2023-04-04T21:04:40.690Z,75.34
2023-04-04T21:07:09.352Z,77.24
2023-04-04T21:09:37.775Z,76.69
2023-04-04T21:12:07.798Z,75.93
2023-04-04T21:14:39.680Z,76.20
2023-04-04T21:17:08.513Z,76.95
2023-04-04T21:19:37.015Z,74.09
2023-04-04T21:22:07.965Z,76.80
2023-04-04T21:24:37.560Z,79.33
2023-04-04T21:27:08.277Z,80.44
2023-04-04T21:29:36.756Z,79.31
2023-04-04T21:32:08.925Z,78.39
2023-04-04T21:34:37.307Z,79.70
2023-04-04T21:37:08.231Z,78.79
2023-04-04T21:39:37.864Z,78.38
2023-04-04T21:42:08.829Z,78.25
2023-04-04T21:44:43.217Z,78.50
2023-04-04T21:47:12.622Z,79.11
2023-04-04T21:49:41.931Z,78.19
2023-04-04T21:52:12.671Z,77.73
2023-04-04T21:54:41.516Z,77.99
2023-04-04T21:57:09.866Z,76.88
2023-04-04T21:59:38.275Z,76.71
2023-04-04T22:02:06.728Z,76.67
2023-04-04T22:04:35.134Z,75.70
2023-04-04T22:07:03.473Z,75.60
2023-04-04T22:09:31.819Z,77.63
2023-04-04T22:12:03.878Z,78.69
2023-04-04T22:14:32.864Z,79.51
2023-04-04T22:17:03.975Z,80.02
2023-04-04T22:19:44.089Z,80.83
2023-04-04T22:22:12.408Z,82.08
2023-04-04T22:24:41.764Z,80.14
2023-04-04T22:27:10.113Z,82.27
2023-04-04T22:29:38.457Z,84.00
2023-04-04T22:32:07.232Z,84.05
2023-04-04T22:34:35.845Z,84.29
2023-04-04T22:37:05.416Z,83.86
2023-04-04T22:39:34.199Z,84.56
2023-04-04T22:42:02.600Z,84.30
2023-04-04T22:44:31.040Z,84.23
2023-04-04T22:46:59.437Z,84.72
2023-04-04T22:49:27.771Z,82.13
2023-04-04T22:51:56.489Z,81.34
2023-04-04T22:54:25.290Z,83.46
2023-04-04T22:56:54.017Z,84.13
2023-04-04T22:59:22.416Z,85.76
2023-04-04T23:01:50.813Z,86.88
2023-04-04T23:04:19.347Z,86.34
2023-04-04T23:06:47.962Z,87.04
2023-04-04T23:09:16.653Z,84.18
2023-04-04T23:11:44.984Z,85.36
2023-04-04T23:14:15.930Z,86.03
2023-04-04T23:16:44.454Z,86.25
2023-04-04T23:19:15.805Z,85.13
2023-04-04T23:21:44.757Z,86.03
2023-04-04T23:24:13.190Z,85.09
2023-04-04T23:26:41.678Z,84.95
2023-04-04T23:29:10.813Z,85.14
2023-04-04T23:31:39.203Z,84.92
2023-04-04T23:34:07.660Z,85.92
2023-04-04T23:36:36.384Z,87.05
2023-04-04T23:39:05.112Z,86.28
2023-04-04T23:41:33.481Z,85.12
2023-04-04T23:44:01.942Z,85.63
2023-04-04T23:46:33.484Z,86.07
2023-04-04T23:49:02.316Z,85.07
2023-04-04T23:51:39.982Z,84.71
2023-04-04T23:54:09.800Z,84.65
2023-04-04T23:56:38.655Z,81.49
2023-04-04T23:59:07.761Z,81.66
